PWSweather.com
Personal Weather Stations
Station Observations
KILMORRI1
Goose Lake, Morris, IL 60450

Goose LakeMorris, IL 60450

Lat: 41.34, Lon: -88.3

Elevation: 523

Station Type:

Latest ConditionsUpdated 4:50:05 AM CST Sunday, Jan 21, 2018
Currently Today's Max Today's Min Today's Average
Temperature 38.9°F3.8°C 40.0°F4.4°C 38.8°F3.8°C 39.4°F4.1°C
Dew Point 36.8°F2.7°C 37.5°F3.1°C 35.7°F2.1°C 36.5°F2.5°C
Winds 1.2 mph S1.9 kmh S 5.8 mph SSE9.3 kmh SSE - 2.2 mph 3.5 kmh
Wind Gusts 2.3 mph3.7 kmh 8.1 mph13.0 kmh - -
Humidity 92% 92% 86% 89%
Pressure 29.98 in1015.2 mb 30.00 in1015.9 mb 29.98 in1015.2 mb -
Hour Temp Dew Point Humidity Winds Wind Gusts Pressure Precip Precip Rate Daily Precip Total
04:50 AM 38.9°F3.8°C 36.8°F2.7°C 92% 1.2 mph S1.9 kmh S 2.3 mph3.7 kmh 29.98 in1015.2 mb - 0.00 in0.0 mm 0.00 in0.0 mm
04:40 AM 38.8°F3.8°C 36.4°F2.4°C 91% Calm Calm 1.2 mph1.9 kmh 29.98 in1015.2 mb - 0.00 in0.0 mm 0.00 in0.0 mm
04:30 AM 39.0°F3.9°C 36.6°F2.6°C 91% Calm Calm 2.3 mph3.7 kmh 29.99 in1015.6 mb - 0.00 in0.0 mm 0.00 in0.0 mm
04:20 AM 39.0°F3.9°C 36.6°F2.6°C 91% 1.2 mph SE1.9 kmh SE 2.3 mph3.7 kmh 29.98 in1015.2 mb - 0.00 in0.0 mm 0.00 in0.0 mm
04:10 AM 39.1°F3.9°C 36.7°F2.6°C 91% 2.3 mph SSE3.7 kmh SSE 3.5 mph5.6 kmh 29.98 in1015.2 mb - 0.00 in0.0 mm 0.00 in0.0 mm
04:00 AM 39.3°F4.1°C 36.9°F2.7°C 91% 2.3 mph SSE3.7 kmh SSE 3.5 mph5.6 kmh 29.98 in1015.2 mb - 0.00 in0.0 mm 0.00 in0.0 mm
03:50 AM 39.4°F4.1°C 36.7°F2.6°C 90% 1.2 mph SE1.9 kmh SE 2.3 mph3.7 kmh 29.98 in1015.2 mb - 0.00 in0.0 mm 0.00 in0.0 mm
03:40 AM 39.7°F4.3°C 37.0°F2.8°C 90% 2.3 mph S3.7 kmh S 5.8 mph9.3 kmh 29.98 in1015.2 mb - 0.00 in0.0 mm 0.00 in0.0 mm
03:30 AM 39.9°F4.4°C 37.2°F2.9°C 90% 3.5 mph S5.6 kmh S 6.9 mph11.1 kmh 29.98 in1015.2 mb - 0.00 in0.0 mm 0.00 in0.0 mm
03:20 AM 40.0°F4.4°C 37.3°F2.9°C 90% 5.8 mph SSE9.3 kmh SSE 8.1 mph13.0 kmh 29.98 in1015.2 mb - 0.00 in0.0 mm 0.00 in0.0 mm
03:10 AM 39.9°F4.4°C 37.5°F3.1°C 91% 3.5 mph SSE5.6 kmh SSE 6.9 mph11.1 kmh 29.98 in1015.2 mb - 0.00 in0.0 mm 0.00 in0.0 mm
03:00 AM 39.6°F4.2°C 36.9°F2.7°C 90% 2.3 mph SE3.7 kmh SE 3.5 mph5.6 kmh 29.99 in1015.6 mb - 0.00 in0.0 mm 0.00 in0.0 mm
02:50 AM 39.5°F4.2°C 37.1°F2.8°C 91% 3.5 mph SSE5.6 kmh SSE 8.1 mph13.0 kmh 29.99 in1015.6 mb - 0.00 in0.0 mm 0.00 in0.0 mm
02:40 AM 39.3°F4.1°C 36.6°F2.6°C 90% 1.2 mph SE1.9 kmh SE 2.3 mph3.7 kmh 30.00 in1015.9 mb - 0.00 in0.0 mm 0.00 in0.0 mm
02:30 AM 39.0°F3.9°C 36.3°F2.4°C 90% 1.2 mph SSE1.9 kmh SSE 1.2 mph1.9 kmh 30.00 in1015.9 mb - 0.00 in0.0 mm 0.00 in0.0 mm
02:20 AM 39.2°F4.0°C 36.5°F2.5°C 90% 1.2 mph SSE1.9 kmh SSE 2.3 mph3.7 kmh 30.00 in1015.9 mb - 0.00 in0.0 mm 0.00 in0.0 mm
02:10 AM 39.2°F4.0°C 36.5°F2.5°C 90% 1.2 mph S1.9 kmh S 1.2 mph1.9 kmh 30.00 in1015.9 mb - 0.00 in0.0 mm 0.00 in0.0 mm
02:00 AM 39.2°F4.0°C 36.3°F2.4°C 89% 1.2 mph SW1.9 kmh SW 1.2 mph1.9 kmh 30.00 in1015.9 mb - 0.00 in0.0 mm 0.00 in0.0 mm
01:50 AM 39.5°F4.2°C 36.5°F2.5°C 89% Calm Calm -- 30.00 in1015.9 mb - 0.00 in0.0 mm 0.00 in0.0 mm
01:40 AM 39.3°F4.1°C 36.3°F2.4°C 89% 2.3 mph S3.7 kmh S 4.6 mph7.4 kmh 29.99 in1015.6 mb - 0.00 in0.0 mm 0.00 in0.0 mm
01:30 AM 39.4°F4.1°C 36.1°F2.3°C 88% 2.3 mph SSE3.7 kmh SSE 3.5 mph5.6 kmh 29.99 in1015.6 mb - 0.00 in0.0 mm 0.00 in0.0 mm
01:20 AM 39.4°F4.1°C 36.2°F2.3°C 88% 2.3 mph SSE3.7 kmh SSE 3.5 mph5.6 kmh 29.99 in1015.6 mb - 0.00 in0.0 mm 0.00 in0.0 mm
01:10 AM 39.3°F4.1°C 35.8°F2.1°C 87% 3.5 mph S5.6 kmh S 3.5 mph5.6 kmh 29.99 in1015.6 mb - 0.00 in0.0 mm 0.00 in0.0 mm
01:00 AM 39.5°F4.2°C 36.0°F2.2°C 87% 1.2 mph S1.9 kmh S 3.5 mph5.6 kmh 29.99 in1015.6 mb - 0.00 in0.0 mm 0.00 in0.0 mm
12:50 AM 39.7°F4.3°C 36.1°F2.3°C 87% 2.3 mph SSE3.7 kmh SSE 3.5 mph5.6 kmh 29.99 in1015.6 mb - 0.00 in0.0 mm 0.00 in0.0 mm
12:40 AM 39.6°F4.2°C 36.1°F2.3°C 87% 4.6 mph S7.4 kmh S 6.9 mph11.1 kmh 29.99 in1015.6 mb - 0.00 in0.0 mm 0.00 in0.0 mm
12:30 AM 39.5°F4.2°C 36.0°F2.2°C 87% 2.3 mph S3.7 kmh S 4.6 mph7.4 kmh 29.99 in1015.6 mb - 0.00 in0.0 mm 0.00 in0.0 mm
12:20 AM 39.5°F4.2°C 36.0°F2.2°C 87% 3.5 mph S5.6 kmh S 4.6 mph7.4 kmh 29.99 in1015.6 mb - 0.00 in0.0 mm 0.00 in0.0 mm
12:10 AM 39.5°F4.2°C 36.0°F2.2°C 87% 2.3 mph S3.7 kmh S 3.5 mph5.6 kmh 29.99 in1015.6 mb - 0.00 in0.0 mm 0.00 in0.0 mm
12:00 AM 39.6°F4.2°C 35.7°F2.1°C 86% 4.6 mph S7.4 kmh S 5.8 mph9.3 kmh 30.00 in1015.9 mb - 0.00 in0.0 mm 0.00 in0.0 mm